sensor_id;sensor_type;location;lat;lon;timestamp;P1;durP1;ratioP1;P2;durP2;ratioP2
51824;SDS011;37879;52.986;6.282;2024-02-15T00:01:57;20.63;;;8.38;;
51824;SDS011;37879;52.986;6.282;2024-02-15T00:04:22;16.90;;;7.90;;
51824;SDS011;37879;52.986;6.282;2024-02-15T00:06:48;22.80;;;8.68;;
51824;SDS011;37879;52.986;6.282;2024-02-15T00:09:13;15.00;;;7.28;;
51824;SDS011;37879;52.986;6.282;2024-02-15T00:11:39;18.33;;;8.68;;
51824;SDS011;37879;52.986;6.282;2024-02-15T00:14:05;20.08;;;8.60;;
51824;SDS011;37879;52.986;6.282;2024-02-15T00:16:33;21.25;;;8.95;;
51824;SDS011;37879;52.986;6.282;2024-02-15T00:19:00;20.90;;;8.52;;
51824;SDS011;37879;52.986;6.282;2024-02-15T00:21:27;17.73;;;9.10;;
51824;SDS011;37879;52.986;6.282;2024-02-15T00:23:52;18.65;;;8.15;;
51824;SDS011;37879;52.986;6.282;2024-02-15T00:26:22;21.77;;;8.10;;
51824;SDS011;37879;52.986;6.282;2024-02-15T00:28:47;14.88;;;7.93;;
51824;SDS011;37879;52.986;6.282;2024-02-15T00:31:14;17.33;;;7.60;;
51824;SDS011;37879;52.986;6.282;2024-02-15T00:33:40;14.07;;;6.90;;
51824;SDS011;37879;52.986;6.282;2024-02-15T00:36:05;18.38;;;8.60;;
51824;SDS011;37879;52.986;6.282;2024-02-15T00:38:31;18.17;;;8.43;;
51824;SDS011;37879;52.986;6.282;2024-02-15T00:40:57;16.75;;;7.45;;
51824;SDS011;37879;52.986;6.282;2024-02-15T00:43:27;12.70;;;7.70;;
51824;SDS011;37879;52.986;6.282;2024-02-15T00:45:53;14.20;;;7.28;;
51824;SDS011;37879;52.986;6.282;2024-02-15T00:48:19;12.65;;;6.85;;
51824;SDS011;37879;52.986;6.282;2024-02-15T00:50:44;17.33;;;7.43;;
51824;SDS011;37879;52.986;6.282;2024-02-15T00:53:10;15.68;;;8.20;;
51824;SDS011;37879;52.986;6.282;2024-02-15T00:55:36;12.63;;;6.60;;
51824;SDS011;37879;52.986;6.282;2024-02-15T00:58:02;13.27;;;7.20;;
51824;SDS011;37879;52.986;6.282;2024-02-15T01:00:28;18.75;;;6.53;;
51824;SDS011;37879;52.986;6.282;2024-02-15T01:02:53;12.02;;;6.38;;
51824;SDS011;37879;52.986;6.282;2024-02-15T01:05:20;13.65;;;6.78;;
51824;SDS011;37879;52.986;6.282;2024-02-15T01:07:47;12.85;;;6.75;;
51824;SDS011;37879;52.986;6.282;2024-02-15T01:10:14;11.82;;;5.85;;
51824;SDS011;37879;52.986;6.282;2024-02-15T01:12:40;12.00;;;5.20;;
51824;SDS011;37879;52.986;6.282;2024-02-15T01:15:06;12.00;;;6.00;;
51824;SDS011;37879;52.986;6.282;2024-02-15T01:17:32;12.77;;;6.18;;
51824;SDS011;37879;52.986;6.282;2024-02-15T01:19:57;7.53;;;5.03;;
51824;SDS011;37879;52.986;6.282;2024-02-15T01:22:24;10.68;;;5.50;;
51824;SDS011;37879;52.986;6.282;2024-02-15T01:24:52;11.00;;;5.07;;
51824;SDS011;37879;52.986;6.282;2024-02-15T01:27:18;10.45;;;5.25;;
51824;SDS011;37879;52.986;6.282;2024-02-15T01:29:44;8.57;;;4.45;;
51824;SDS011;37879;52.986;6.282;2024-02-15T01:32:10;9.40;;;5.22;;
51824;SDS011;37879;52.986;6.282;2024-02-15T01:34:36;8.90;;;4.20;;
51824;SDS011;37879;52.986;6.282;2024-02-15T01:37:02;10.38;;;4.28;;
51824;SDS011;37879;52.986;6.282;2024-02-15T01:39:28;12.75;;;4.53;;
51824;SDS011;37879;52.986;6.282;2024-02-15T01:41:53;10.82;;;4.95;;
51824;SDS011;37879;52.986;6.282;2024-02-15T01:44:21;7.88;;;4.30;;
51824;SDS011;37879;52.986;6.282;2024-02-15T01:46:49;7.03;;;4.05;;
51824;SDS011;37879;52.986;6.282;2024-02-15T01:49:20;7.53;;;3.45;;
51824;SDS011;37879;52.986;6.282;2024-02-15T01:51:47;6.78;;;2.95;;
51824;SDS011;37879;52.986;6.282;2024-02-15T01:54:17;6.53;;;3.15;;
51824;SDS011;37879;52.986;6.282;2024-02-15T01:56:44;7.90;;;3.80;;
51824;SDS011;37879;52.986;6.282;2024-02-15T01:59:10;8.13;;;3.38;;
51824;SDS011;37879;52.986;6.282;2024-02-15T02:01:39;5.30;;;3.10;;
51824;SDS011;37879;52.986;6.282;2024-02-15T02:04:06;8.60;;;3.10;;
51824;SDS011;37879;52.986;6.282;2024-02-15T02:06:33;8.52;;;3.40;;
51824;SDS011;37879;52.986;6.282;2024-02-15T02:08:59;7.22;;;2.72;;
51824;SDS011;37879;52.986;6.282;2024-02-15T02:11:27;7.32;;;3.20;;
51824;SDS011;37879;52.986;6.282;2024-02-15T02:13:54;8.13;;;2.90;;
51824;SDS011;37879;52.986;6.282;2024-02-15T02:16:24;7.07;;;3.17;;
51824;SDS011;37879;52.986;6.282;2024-02-15T02:18:56;8.77;;;3.17;;
51824;SDS011;37879;52.986;6.282;2024-02-15T02:21:26;8.00;;;3.10;;
51824;SDS011;37879;52.986;6.282;2024-02-15T02:23:55;6.30;;;2.95;;
51824;SDS011;37879;52.986;6.282;2024-02-15T02:26:22;5.72;;;3.13;;
51824;SDS011;37879;52.986;6.282;2024-02-15T02:28:48;6.07;;;3.50;;
51824;SDS011;37879;52.986;6.282;2024-02-15T02:31:15;6.95;;;3.55;;
51824;SDS011;37879;52.986;6.282;2024-02-15T02:33:41;8.52;;;3.05;;
51824;SDS011;37879;52.986;6.282;2024-02-15T02:36:12;8.25;;;2.95;;
51824;SDS011;37879;52.986;6.282;2024-02-15T02:38:38;9.23;;;3.72;;
51824;SDS011;37879;52.986;6.282;2024-02-15T02:41:05;8.23;;;2.95;;
51824;SDS011;37879;52.986;6.282;2024-02-15T02:43:30;7.00;;;3.20;;
51824;SDS011;37879;52.986;6.282;2024-02-15T02:45:56;9.32;;;3.60;;
51824;SDS011;37879;52.986;6.282;2024-02-15T02:48:21;9.52;;;3.80;;
51824;SDS011;37879;52.986;6.282;2024-02-15T02:50:48;11.15;;;2.70;;
51824;SDS011;37879;52.986;6.282;2024-02-15T02:53:14;9.23;;;3.92;;
51824;SDS011;37879;52.986;6.282;2024-02-15T02:55:43;10.82;;;3.80;;
51824;SDS011;37879;52.986;6.282;2024-02-15T02:58:09;8.85;;;3.70;;
51824;SDS011;37879;52.986;6.282;2024-02-15T03:00:34;10.65;;;3.63;;
51824;SDS011;37879;52.986;6.282;2024-02-15T03:03:00;11.27;;;4.43;;
51824;SDS011;37879;52.986;6.282;2024-02-15T03:05:26;8.68;;;3.35;;
51824;SDS011;37879;52.986;6.282;2024-02-15T03:07:51;9.07;;;3.50;;
51824;SDS011;37879;52.986;6.282;2024-02-15T03:10:17;9.65;;;4.32;;
51824;SDS011;37879;52.986;6.282;2024-02-15T03:12:43;9.98;;;3.20;;
51824;SDS011;37879;52.986;6.282;2024-02-15T03:15:12;13.93;;;3.75;;
51824;SDS011;37879;52.986;6.282;2024-02-15T03:17:39;11.82;;;3.90;;
51824;SDS011;37879;52.986;6.282;2024-02-15T03:20:09;9.35;;;4.18;;
51824;SDS011;37879;52.986;6.282;2024-02-15T03:22:57;13.13;;;4.00;;
51824;SDS011;37879;52.986;6.282;2024-02-15T03:25:23;11.20;;;3.65;;
51824;SDS011;37879;52.986;6.282;2024-02-15T03:27:50;8.93;;;3.55;;
51824;SDS011;37879;52.986;6.282;2024-02-15T03:30:19;10.40;;;3.25;;
51824;SDS011;37879;52.986;6.282;2024-02-15T03:32:46;7.80;;;3.53;;
51824;SDS011;37879;52.986;6.282;2024-02-15T03:35:22;15.35;;;5.15;;
51824;SDS011;37879;52.986;6.282;2024-02-15T03:37:49;15.65;;;4.40;;
51824;SDS011;37879;52.986;6.282;2024-02-15T03:40:18;11.82;;;4.60;;
51824;SDS011;37879;52.986;6.282;2024-02-15T03:42:45;11.90;;;3.85;;
51824;SDS011;37879;52.986;6.282;2024-02-15T03:45:12;10.20;;;4.43;;
51824;SDS011;37879;52.986;6.282;2024-02-15T03:47:38;10.68;;;4.10;;
51824;SDS011;37879;52.986;6.282;2024-02-15T03:50:04;9.65;;;5.15;;
51824;SDS011;37879;52.986;6.282;2024-02-15T03:52:31;13.38;;;5.65;;
51824;SDS011;37879;52.986;6.282;2024-02-15T03:54:57;8.45;;;4.70;;
51824;SDS011;37879;52.986;6.282;2024-02-15T03:57:24;15.20;;;6.38;;
51824;SDS011;37879;52.986;6.282;2024-02-15T03:59:49;14.50;;;5.57;;
51824;SDS011;37879;52.986;6.282;2024-02-15T04:02:19;10.77;;;4.95;;
51824;SDS011;37879;52.986;6.282;2024-02-15T04:04:45;11.65;;;5.07;;
51824;SDS011;37879;52.986;6.282;2024-02-15T04:07:14;12.00;;;6.07;;
51824;SDS011;37879;52.986;6.282;2024-02-15T04:09:44;14.00;;;5.68;;
51824;SDS011;37879;52.986;6.282;2024-02-15T04:12:11;12.73;;;6.13;;
51824;SDS011;37879;52.986;6.282;2024-02-15T04:14:37;15.98;;;5.80;;
51824;SDS011;37879;52.986;6.282;2024-02-15T04:17:05;14.32;;;5.93;;
51824;SDS011;37879;52.986;6.282;2024-02-15T04:19:31;13.10;;;5.07;;
51824;SDS011;37879;52.986;6.282;2024-02-15T04:21:57;13.85;;;6.03;;
51824;SDS011;37879;52.986;6.282;2024-02-15T04:24:24;13.45;;;5.88;;
51824;SDS011;37879;52.986;6.282;2024-02-15T04:26:50;15.23;;;5.90;;
51824;SDS011;37879;52.986;6.282;2024-02-15T04:29:16;11.88;;;6.32;;
51824;SDS011;37879;52.986;6.282;2024-02-15T04:31:46;12.15;;;6.63;;
51824;SDS011;37879;52.986;6.282;2024-02-15T04:34:17;12.50;;;7.45;;
51824;SDS011;37879;52.986;6.282;2024-02-15T04:36:46;12.18;;;7.53;;
51824;SDS011;37879;52.986;6.282;2024-02-15T04:39:19;14.80;;;7.28;;
51824;SDS011;37879;52.986;6.282;2024-02-15T04:41:55;12.98;;;6.95;;
51824;SDS011;37879;52.986;6.282;2024-02-15T04:44:21;13.50;;;7.80;;
51824;SDS011;37879;52.986;6.282;2024-02-15T04:46:48;12.10;;;6.93;;
51824;SDS011;37879;52.986;6.282;2024-02-15T04:49:14;12.75;;;6.80;;
51824;SDS011;37879;52.986;6.282;2024-02-15T04:51:40;12.80;;;8.05;;
51824;SDS011;37879;52.986;6.282;2024-02-15T04:54:07;14.63;;;8.00;;
51824;SDS011;37879;52.986;6.282;2024-02-15T04:56:33;13.90;;;8.75;;
51824;SDS011;37879;52.986;6.282;2024-02-15T04:59:01;15.35;;;7.93;;
51824;SDS011;37879;52.986;6.282;2024-02-15T05:01:27;14.50;;;8.00;;
51824;SDS011;37879;52.986;6.282;2024-02-15T05:03:54;14.27;;;7.80;;
51824;SDS011;37879;52.986;6.282;2024-02-15T05:06:20;19.13;;;9.38;;
51824;SDS011;37879;52.986;6.282;2024-02-15T05:08:46;18.92;;;9.02;;
51824;SDS011;37879;52.986;6.282;2024-02-15T05:11:12;18.95;;;10.73;;
51824;SDS011;37879;52.986;6.282;2024-02-15T05:13:44;18.02;;;9.75;;
51824;SDS011;37879;52.986;6.282;2024-02-15T05:16:10;18.90;;;9.18;;
51824;SDS011;37879;52.986;6.282;2024-02-15T05:18:37;17.02;;;10.23;;
51824;SDS011;37879;52.986;6.282;2024-02-15T05:21:05;19.58;;;11.40;;
51824;SDS011;37879;52.986;6.282;2024-02-15T05:23:34;18.38;;;10.75;;
51824;SDS011;37879;52.986;6.282;2024-02-15T05:26:01;21.38;;;11.07;;
51824;SDS011;37879;52.986;6.282;2024-02-15T05:28:28;19.20;;;11.20;;
51824;SDS011;37879;52.986;6.282;2024-02-15T05:31:08;19.65;;;10.38;;
51824;SDS011;37879;52.986;6.282;2024-02-15T05:33:37;21.35;;;10.77;;
51824;SDS011;37879;52.986;6.282;2024-02-15T05:36:09;17.50;;;10.82;;
51824;SDS011;37879;52.986;6.282;2024-02-15T05:38:38;19.55;;;10.60;;
51824;SDS011;37879;52.986;6.282;2024-02-15T05:41:05;18.10;;;10.70;;
51824;SDS011;37879;52.986;6.282;2024-02-15T05:43:33;19.52;;;10.63;;
51824;SDS011;37879;52.986;6.282;2024-02-15T05:46:01;17.70;;;10.30;;
51824;SDS011;37879;52.986;6.282;2024-02-15T05:48:28;17.65;;;11.05;;
51824;SDS011;37879;52.986;6.282;2024-02-15T05:50:56;17.63;;;11.20;;
51824;SDS011;37879;52.986;6.282;2024-02-15T05:53:23;19.38;;;10.65;;
51824;SDS011;37879;52.986;6.282;2024-02-15T05:55:49;16.55;;;10.90;;
51824;SDS011;37879;52.986;6.282;2024-02-15T05:58:15;19.08;;;10.35;;
51824;SDS011;37879;52.986;6.282;2024-02-15T06:00:42;18.80;;;11.30;;
51824;SDS011;37879;52.986;6.282;2024-02-15T06:03:09;23.30;;;11.75;;
51824;SDS011;37879;52.986;6.282;2024-02-15T06:05:38;20.95;;;11.25;;
51824;SDS011;37879;52.986;6.282;2024-02-15T06:08:05;19.02;;;10.85;;
51824;SDS011;37879;52.986;6.282;2024-02-15T06:10:31;20.70;;;11.88;;
51824;SDS011;37879;52.986;6.282;2024-02-15T06:12:57;14.05;;;9.95;;
51824;SDS011;37879;52.986;6.282;2024-02-15T06:15:24;20.00;;;11.48;;
51824;SDS011;37879;52.986;6.282;2024-02-15T06:17:50;16.05;;;10.40;;
51824;SDS011;37879;52.986;6.282;2024-02-15T06:20:16;15.55;;;10.60;;
51824;SDS011;37879;52.986;6.282;2024-02-15T06:22:46;19.08;;;11.73;;
51824;SDS011;37879;52.986;6.282;2024-02-15T06:25:12;17.60;;;10.00;;
51824;SDS011;37879;52.986;6.282;2024-02-15T06:27:40;18.58;;;11.75;;
51824;SDS011;37879;52.986;6.282;2024-02-15T06:30:08;15.40;;;10.50;;
51824;SDS011;37879;52.986;6.282;2024-02-15T06:32:53;19.23;;;10.50;;
51824;SDS011;37879;52.986;6.282;2024-02-15T06:35:37;18.75;;;10.02;;
51824;SDS011;37879;52.986;6.282;2024-02-15T06:38:23;14.93;;;9.63;;
51824;SDS011;37879;52.986;6.282;2024-02-15T06:41:07;17.20;;;9.65;;
51824;SDS011;37879;52.986;6.282;2024-02-15T06:43:34;12.90;;;8.85;;
51824;SDS011;37879;52.986;6.282;2024-02-15T06:46:01;12.85;;;9.45;;
51824;SDS011;37879;52.986;6.282;2024-02-15T06:48:28;18.15;;;9.60;;
51824;SDS011;37879;52.986;6.282;2024-02-15T06:50:53;16.33;;;8.20;;
51824;SDS011;37879;52.986;6.282;2024-02-15T06:53:19;16.77;;;9.25;;
51824;SDS011;37879;52.986;6.282;2024-02-15T06:55:46;13.55;;;8.07;;
51824;SDS011;37879;52.986;6.282;2024-02-15T06:58:17;12.57;;;8.70;;
51824;SDS011;37879;52.986;6.282;2024-02-15T07:00:43;14.73;;;8.80;;
51824;SDS011;37879;52.986;6.282;2024-02-15T07:03:09;17.58;;;9.40;;
51824;SDS011;37879;52.986;6.282;2024-02-15T07:05:38;14.52;;;8.48;;
51824;SDS011;37879;52.986;6.282;2024-02-15T07:08:04;12.07;;;8.57;;
51824;SDS011;37879;52.986;6.282;2024-02-15T07:10:31;15.45;;;9.18;;
51824;SDS011;37879;52.986;6.282;2024-02-15T07:12:57;16.25;;;9.68;;
51824;SDS011;37879;52.986;6.282;2024-02-15T07:15:22;15.23;;;8.57;;
51824;SDS011;37879;52.986;6.282;2024-02-15T07:17:48;13.85;;;8.45;;
51824;SDS011;37879;52.986;6.282;2024-02-15T07:20:14;11.30;;;8.02;;
51824;SDS011;37879;52.986;6.282;2024-02-15T07:22:45;13.30;;;9.23;;
51824;SDS011;37879;52.986;6.282;2024-02-15T07:25:11;15.95;;;8.98;;
51824;SDS011;37879;52.986;6.282;2024-02-15T07:27:37;14.30;;;8.23;;
51824;SDS011;37879;52.986;6.282;2024-02-15T07:30:03;13.32;;;7.57;;
51824;SDS011;37879;52.986;6.282;2024-02-15T07:32:33;13.40;;;7.93;;
51824;SDS011;37879;52.986;6.282;2024-02-15T07:35:00;13.05;;;8.50;;
51824;SDS011;37879;52.986;6.282;2024-02-15T07:37:26;12.10;;;8.27;;
51824;SDS011;37879;52.986;6.282;2024-02-15T07:39:52;12.55;;;7.65;;
51824;SDS011;37879;52.986;6.282;2024-02-15T07:42:18;11.00;;;7.28;;
51824;SDS011;37879;52.986;6.282;2024-02-15T07:44:43;14.73;;;8.13;;
51824;SDS011;37879;52.986;6.282;2024-02-15T07:47:09;14.30;;;7.95;;
51824;SDS011;37879;52.986;6.282;2024-02-15T07:49:38;15.00;;;7.07;;
51824;SDS011;37879;52.986;6.282;2024-02-15T07:52:03;11.05;;;7.25;;
51824;SDS011;37879;52.986;6.282;2024-02-15T07:54:30;12.90;;;8.10;;
51824;SDS011;37879;52.986;6.282;2024-02-15T07:56:58;16.35;;;7.82;;
51824;SDS011;37879;52.986;6.282;2024-02-15T07:59:24;11.25;;;6.68;;
51824;SDS011;37879;52.986;6.282;2024-02-15T08:01:50;13.25;;;7.65;;
51824;SDS011;37879;52.986;6.282;2024-02-15T08:04:16;13.40;;;7.18;;
51824;SDS011;37879;52.986;6.282;2024-02-15T08:06:46;12.40;;;7.47;;
51824;SDS011;37879;52.986;6.282;2024-02-15T08:09:14;10.57;;;6.45;;
51824;SDS011;37879;52.986;6.282;2024-02-15T08:11:43;11.88;;;6.20;;
51824;SDS011;37879;52.986;6.282;2024-02-15T08:14:09;12.13;;;6.93;;
51824;SDS011;37879;52.986;6.282;2024-02-15T08:16:36;11.00;;;6.55;;
51824;SDS011;37879;52.986;6.282;2024-02-15T08:19:02;12.45;;;6.75;;
51824;SDS011;37879;52.986;6.282;2024-02-15T08:21:33;11.60;;;6.88;;
51824;SDS011;37879;52.986;6.282;2024-02-15T08:24:01;11.70;;;7.30;;
51824;SDS011;37879;52.986;6.282;2024-02-15T08:26:35;11.52;;;7.68;;
51824;SDS011;37879;52.986;6.282;2024-02-15T08:29:06;10.57;;;6.93;;
51824;SDS011;37879;52.986;6.282;2024-02-15T08:31:32;11.18;;;7.15;;
51824;SDS011;37879;52.986;6.282;2024-02-15T08:34:04;11.13;;;7.20;;
51824;SDS011;37879;52.986;6.282;2024-02-15T08:36:30;12.23;;;7.47;;
51824;SDS011;37879;52.986;6.282;2024-02-15T08:38:56;9.40;;;6.60;;
51824;SDS011;37879;52.986;6.282;2024-02-15T08:41:22;11.75;;;6.85;;
51824;SDS011;37879;52.986;6.282;2024-02-15T08:43:52;10.82;;;6.90;;
51824;SDS011;37879;52.986;6.282;2024-02-15T08:46:19;9.23;;;6.63;;
51824;SDS011;37879;52.986;6.282;2024-02-15T08:48:45;11.55;;;7.15;;
51824;SDS011;37879;52.986;6.282;2024-02-15T08:51:11;11.52;;;7.10;;
51824;SDS011;37879;52.986;6.282;2024-02-15T08:53:37;12.80;;;7.35;;
51824;SDS011;37879;52.986;6.282;2024-02-15T08:56:04;9.77;;;6.55;;
51824;SDS011;37879;52.986;6.282;2024-02-15T08:58:30;9.60;;;6.75;;
51824;SDS011;37879;52.986;6.282;2024-02-15T09:00:56;15.63;;;8.20;;
51824;SDS011;37879;52.986;6.282;2024-02-15T09:03:22;13.85;;;7.75;;
51824;SDS011;37879;52.986;6.282;2024-02-15T09:05:48;14.07;;;7.22;;
51824;SDS011;37879;52.986;6.282;2024-02-15T09:08:13;10.50;;;7.00;;
51824;SDS011;37879;52.986;6.282;2024-02-15T09:10:47;10.35;;;6.72;;
51824;SDS011;37879;52.986;6.282;2024-02-15T09:13:14;10.23;;;6.88;;
51824;SDS011;37879;52.986;6.282;2024-02-15T09:15:40;10.82;;;6.53;;
51824;SDS011;37879;52.986;6.282;2024-02-15T09:18:07;11.27;;;7.20;;
51824;SDS011;37879;52.986;6.282;2024-02-15T09:20:35;9.27;;;6.00;;
51824;SDS011;37879;52.986;6.282;2024-02-15T09:23:02;7.72;;;5.43;;
51824;SDS011;37879;52.986;6.282;2024-02-15T09:25:34;12.52;;;5.93;;
51824;SDS011;37879;52.986;6.282;2024-02-15T09:28:03;8.02;;;5.95;;
51824;SDS011;37879;52.986;6.282;2024-02-15T09:30:29;7.38;;;5.28;;
51824;SDS011;37879;52.986;6.282;2024-02-15T09:32:56;9.25;;;5.13;;
51824;SDS011;37879;52.986;6.282;2024-02-15T09:35:22;8.38;;;5.15;;
51824;SDS011;37879;52.986;6.282;2024-02-15T09:37:48;7.03;;;5.47;;
51824;SDS011;37879;52.986;6.282;2024-02-15T09:40:14;6.47;;;4.88;;
51824;SDS011;37879;52.986;6.282;2024-02-15T09:42:42;6.43;;;4.85;;
51824;SDS011;37879;52.986;6.282;2024-02-15T09:45:10;7.25;;;4.70;;
51824;SDS011;37879;52.986;6.282;2024-02-15T09:47:41;8.50;;;5.07;;
51824;SDS011;37879;52.986;6.282;2024-02-15T09:50:08;7.00;;;4.90;;
51824;SDS011;37879;52.986;6.282;2024-02-15T09:52:45;6.50;;;4.68;;
51824;SDS011;37879;52.986;6.282;2024-02-15T09:55:14;8.10;;;5.20;;
51824;SDS011;37879;52.986;6.282;2024-02-15T09:57:41;6.28;;;4.50;;
51824;SDS011;37879;52.986;6.282;2024-02-15T10:00:08;6.15;;;4.38;;
51824;SDS011;37879;52.986;6.282;2024-02-15T10:02:39;6.70;;;4.57;;
51824;SDS011;37879;52.986;6.282;2024-02-15T10:05:07;5.82;;;3.85;;
51824;SDS011;37879;52.986;6.282;2024-02-15T10:07:43;5.95;;;4.10;;
51824;SDS011;37879;52.986;6.282;2024-02-15T10:12:45;5.07;;;3.60;;
51824;SDS011;37879;52.986;6.282;2024-02-15T10:17:57;5.90;;;4.35;;
51824;SDS011;37879;52.986;6.282;2024-02-15T10:20:26;4.80;;;3.25;;
51824;SDS011;37879;52.986;6.282;2024-02-15T10:22:53;4.40;;;3.30;;
51824;SDS011;37879;52.986;6.282;2024-02-15T10:25:34;8.18;;;3.47;;
51824;SDS011;37879;52.986;6.282;2024-02-15T10:28:07;6.90;;;3.45;;
51824;SDS011;37879;52.986;6.282;2024-02-15T10:30:34;3.30;;;2.70;;
51824;SDS011;37879;52.986;6.282;2024-02-15T10:33:01;5.40;;;3.17;;
51824;SDS011;37879;52.986;6.282;2024-02-15T10:35:27;3.53;;;2.80;;
51824;SDS011;37879;52.986;6.282;2024-02-15T10:38:06;4.90;;;2.92;;
51824;SDS011;37879;52.986;6.282;2024-02-15T10:40:33;4.15;;;2.72;;
51824;SDS011;37879;52.986;6.282;2024-02-15T10:42:59;3.75;;;2.72;;
51824;SDS011;37879;52.986;6.282;2024-02-15T10:45:28;4.07;;;2.67;;
51824;SDS011;37879;52.986;6.282;2024-02-15T10:47:56;3.70;;;2.53;;
51824;SDS011;37879;52.986;6.282;2024-02-15T10:50:22;3.67;;;2.78;;
51824;SDS011;37879;52.986;6.282;2024-02-15T10:52:55;3.35;;;2.55;;
51824;SDS011;37879;52.986;6.282;2024-02-15T10:55:38;4.30;;;2.28;;
51824;SDS011;37879;52.986;6.282;2024-02-15T10:58:06;4.13;;;2.17;;
51824;SDS011;37879;52.986;6.282;2024-02-15T11:00:33;3.33;;;2.17;;
51824;SDS011;37879;52.986;6.282;2024-02-15T11:03:03;3.42;;;2.58;;
51824;SDS011;37879;52.986;6.282;2024-02-15T11:05:33;3.50;;;2.22;;
51824;SDS011;37879;52.986;6.282;2024-02-15T11:08:01;3.65;;;2.55;;
51824;SDS011;37879;52.986;6.282;2024-02-15T11:10:29;3.05;;;2.00;;
51824;SDS011;37879;52.986;6.282;2024-02-15T11:12:55;2.88;;;2.10;;
51824;SDS011;37879;52.986;6.282;2024-02-15T11:18:06;2.88;;;1.70;;
51824;SDS011;37879;52.986;6.282;2024-02-15T11:22:57;2.75;;;2.22;;
51824;SDS011;37879;52.986;6.282;2024-02-15T11:25:34;1.95;;;1.60;;
51824;SDS011;37879;52.986;6.282;2024-02-15T11:28:32;3.65;;;1.85;;
51824;SDS011;37879;52.986;6.282;2024-02-15T11:30:53;2.22;;;1.90;;
51824;SDS011;37879;52.986;6.282;2024-02-15T11:33:28;2.72;;;2.00;;
51824;SDS011;37879;52.986;6.282;2024-02-15T11:36:04;2.40;;;1.55;;
51824;SDS011;37879;52.986;6.282;2024-02-15T11:38:30;2.03;;;1.42;;
51824;SDS011;37879;52.986;6.282;2024-02-15T11:46:22;2.83;;;1.65;;
51824;SDS011;37879;52.986;6.282;2024-02-15T11:48:55;2.33;;;1.58;;
51824;SDS011;37879;52.986;6.282;2024-02-15T11:56:32;2.55;;;1.83;;
51824;SDS011;37879;52.986;6.282;2024-02-15T11:59:16;3.03;;;2.13;;
51824;SDS011;37879;52.986;6.282;2024-02-15T12:01:56;3.63;;;2.40;;
51824;SDS011;37879;52.986;6.282;2024-02-15T12:04:40;3.13;;;2.35;;
51824;SDS011;37879;52.986;6.282;2024-02-15T12:07:25;4.00;;;2.95;;
51824;SDS011;37879;52.986;6.282;2024-02-15T12:10:17;4.85;;;2.90;;
51824;SDS011;37879;52.986;6.282;2024-02-15T12:13:01;4.13;;;3.15;;
51824;SDS011;37879;52.986;6.282;2024-02-15T12:15:55;4.28;;;3.22;;
51824;SDS011;37879;52.986;6.282;2024-02-15T12:18:43;5.93;;;3.58;;
51824;SDS011;37879;52.986;6.282;2024-02-15T12:21:11;6.45;;;4.20;;
51824;SDS011;37879;52.986;6.282;2024-02-15T12:23:48;5.78;;;4.22;;
51824;SDS011;37879;52.986;6.282;2024-02-15T12:26:18;5.93;;;4.45;;
51824;SDS011;37879;52.986;6.282;2024-02-15T12:28:44;5.22;;;3.85;;
51824;SDS011;37879;52.986;6.282;2024-02-15T12:31:15;6.35;;;4.50;;
51824;SDS011;37879;52.986;6.282;2024-02-15T12:33:42;8.20;;;4.45;;
51824;SDS011;37879;52.986;6.282;2024-02-15T12:36:08;10.27;;;4.80;;
51824;SDS011;37879;52.986;6.282;2024-02-15T12:38:34;7.03;;;4.60;;
51824;SDS011;37879;52.986;6.282;2024-02-15T12:41:02;7.85;;;4.68;;
51824;SDS011;37879;52.986;6.282;2024-02-15T12:43:29;8.57;;;5.05;;
51824;SDS011;37879;52.986;6.282;2024-02-15T12:45:55;6.00;;;4.78;;
51824;SDS011;37879;52.986;6.282;2024-02-15T12:48:23;6.45;;;4.38;;
51824;SDS011;37879;52.986;6.282;2024-02-15T12:50:49;9.95;;;5.38;;
51824;SDS011;37879;52.986;6.282;2024-02-15T12:53:22;7.47;;;4.47;;
51824;SDS011;37879;52.986;6.282;2024-02-15T12:55:54;6.97;;;4.07;;
51824;SDS011;37879;52.986;6.282;2024-02-15T12:58:20;8.30;;;5.00;;
51824;SDS011;37879;52.986;6.282;2024-02-15T13:00:49;6.70;;;4.38;;
51824;SDS011;37879;52.986;6.282;2024-02-15T13:03:15;6.30;;;4.28;;
51824;SDS011;37879;52.986;6.282;2024-02-15T13:05:42;8.50;;;4.88;;
51824;SDS011;37879;52.986;6.282;2024-02-15T13:08:08;6.55;;;4.47;;
51824;SDS011;37879;52.986;6.282;2024-02-15T13:10:42;6.65;;;3.63;;
51824;SDS011;37879;52.986;6.282;2024-02-15T13:13:08;8.65;;;4.95;;
51824;SDS011;37879;52.986;6.282;2024-02-15T13:15:39;6.22;;;3.60;;
51824;SDS011;37879;52.986;6.282;2024-02-15T13:18:05;6.53;;;3.83;;
51824;SDS011;37879;52.986;6.282;2024-02-15T13:20:34;5.78;;;3.67;;
51824;SDS011;37879;52.986;6.282;2024-02-15T13:23:07;7.72;;;4.22;;
51824;SDS011;37879;52.986;6.282;2024-02-15T13:25:34;5.00;;;3.88;;
51824;SDS011;37879;52.986;6.282;2024-02-15T13:28:04;6.03;;;3.15;;
51824;SDS011;37879;52.986;6.282;2024-02-15T13:30:31;5.10;;;3.67;;
51824;SDS011;37879;52.986;6.282;2024-02-15T13:32:57;5.43;;;3.00;;
51824;SDS011;37879;52.986;6.282;2024-02-15T13:35:23;4.45;;;3.67;;
51824;SDS011;37879;52.986;6.282;2024-02-15T13:37:49;9.02;;;4.07;;
51824;SDS011;37879;52.986;6.282;2024-02-15T13:40:25;6.38;;;4.00;;
51824;SDS011;37879;52.986;6.282;2024-02-15T13:42:59;11.32;;;4.25;;
51824;SDS011;37879;52.986;6.282;2024-02-15T13:45:30;8.25;;;4.47;;
51824;SDS011;37879;52.986;6.282;2024-02-15T13:48:02;8.40;;;4.50;;
51824;SDS011;37879;52.986;6.282;2024-02-15T13:50:36;6.70;;;4.63;;
51824;SDS011;37879;52.986;6.282;2024-02-15T13:53:03;10.52;;;5.93;;
51824;SDS011;37879;52.986;6.282;2024-02-15T13:55:29;6.05;;;4.20;;
51824;SDS011;37879;52.986;6.282;2024-02-15T13:57:55;11.82;;;4.80;;
51824;SDS011;37879;52.986;6.282;2024-02-15T14:00:22;10.73;;;5.47;;
51824;SDS011;37879;52.986;6.282;2024-02-15T14:02:51;8.07;;;4.97;;
51824;SDS011;37879;52.986;6.282;2024-02-15T14:05:18;9.75;;;4.80;;
51824;SDS011;37879;52.986;6.282;2024-02-15T14:07:51;6.68;;;4.75;;
51824;SDS011;37879;52.986;6.282;2024-02-15T14:10:20;7.25;;;4.35;;
51824;SDS011;37879;52.986;6.282;2024-02-15T14:12:47;11.07;;;5.25;;
51824;SDS011;37879;52.986;6.282;2024-02-15T14:15:14;7.78;;;4.95;;
51824;SDS011;37879;52.986;6.282;2024-02-15T14:17:40;14.80;;;5.05;;
51824;SDS011;37879;52.986;6.282;2024-02-15T14:20:06;8.27;;;4.88;;
51824;SDS011;37879;52.986;6.282;2024-02-15T14:22:38;10.18;;;5.07;;
51824;SDS011;37879;52.986;6.282;2024-02-15T14:25:05;8.70;;;5.47;;
51824;SDS011;37879;52.986;6.282;2024-02-15T14:27:32;8.52;;;5.10;;
51824;SDS011;37879;52.986;6.282;2024-02-15T14:29:58;8.55;;;4.32;;
51824;SDS011;37879;52.986;6.282;2024-02-15T14:32:42;9.50;;;4.95;;
51824;SDS011;37879;52.986;6.282;2024-02-15T14:35:34;7.07;;;4.55;;
51824;SDS011;37879;52.986;6.282;2024-02-15T14:38:02;8.68;;;4.45;;
51824;SDS011;37879;52.986;6.282;2024-02-15T14:40:30;7.70;;;4.80;;
51824;SDS011;37879;52.986;6.282;2024-02-15T14:42:58;7.00;;;4.72;;
51824;SDS011;37879;52.986;6.282;2024-02-15T14:45:24;9.20;;;4.63;;
51824;SDS011;37879;52.986;6.282;2024-02-15T14:47:50;9.18;;;4.97;;
51824;SDS011;37879;52.986;6.282;2024-02-15T14:50:16;7.53;;;4.65;;
51824;SDS011;37879;52.986;6.282;2024-02-15T14:52:42;7.15;;;5.40;;
51824;SDS011;37879;52.986;6.282;2024-02-15T14:55:08;8.73;;;4.40;;
51824;SDS011;37879;52.986;6.282;2024-02-15T14:57:34;8.60;;;4.90;;
51824;SDS011;37879;52.986;6.282;2024-02-15T15:00:02;7.85;;;4.25;;
51824;SDS011;37879;52.986;6.282;2024-02-15T15:02:42;11.00;;;4.65;;
51824;SDS011;37879;52.986;6.282;2024-02-15T15:05:13;5.95;;;4.15;;
51824;SDS011;37879;52.986;6.282;2024-02-15T15:07:58;10.18;;;4.45;;